createdAt,value
2023-04-17T00:00:34.906Z,102177.09
2023-04-17T00:03:03.498Z,102178.09
2023-04-17T00:05:33.947Z,102181.78
2023-04-17T00:08:02.515Z,102175.38
2023-04-17T00:10:30.574Z,102179.94
2023-04-17T00:12:58.819Z,102174.63
2023-04-17T00:15:27.244Z,102177.34
2023-04-17T00:17:56.958Z,102172.94
2023-04-17T00:20:25.146Z,102180.88
2023-04-17T00:22:53.305Z,102176.63
2023-04-17T00:25:21.317Z,102178.31
2023-04-17T00:27:50.852Z,102184.94
2023-04-17T00:30:19.184Z,102191.09
2023-04-17T00:32:47.190Z,102188.63
2023-04-17T00:35:16.998Z,102186.56
2023-04-17T00:37:45.084Z,102185.44
2023-04-17T00:40:13.962Z,102189.25
2023-04-17T00:42:42.001Z,102188.13
2023-04-17T00:45:11.541Z,102187.28
2023-04-17T00:47:39.913Z,102184.34
2023-04-17T00:50:09.609Z,102187.88
2023-04-17T00:52:39.172Z,102188.50
2023-04-17T00:55:09.009Z,102183.22
2023-04-17T00:57:37.351Z,102183.09
2023-04-17T01:00:08.560Z,102188.38
2023-04-17T01:02:37.414Z,102183.97
2023-04-17T01:05:06.135Z,102186.38
2023-04-17T01:07:34.280Z,102193.75
2023-04-17T01:10:03.985Z,102185.66
2023-04-17T01:12:32.285Z,102199.16
2023-04-17T01:15:00.334Z,102196.69
2023-04-17T01:17:29.050Z,102200.16
2023-04-17T01:19:59.311Z,102188.50
2023-04-17T01:22:27.419Z,102199.41
2023-04-17T01:24:56.973Z,102194.00
2023-04-17T01:27:25.220Z,102185.81
2023-04-17T01:29:53.383Z,102189.50
2023-04-17T01:32:22.818Z,102191.44
2023-04-17T01:34:59.110Z,102185.19
2023-04-17T01:37:29.768Z,102187.03
2023-04-17T01:40:05.193Z,102189.97
2023-04-17T01:42:34.083Z,102189.13
2023-04-17T01:45:03.355Z,102185.69
2023-04-17T01:47:32.770Z,102177.47
2023-04-17T01:50:02.331Z,102181.28
2023-04-17T01:52:37.880Z,102175.91
2023-04-17T01:55:16.067Z,102182.00
2023-04-17T01:57:49.003Z,102180.41
2023-04-17T02:00:20.742Z,102170.50
2023-04-17T02:02:56.418Z,102170.88
2023-04-17T02:08:31.569Z,102176.66
2023-04-17T02:11:12.941Z,102172.34
2023-04-17T02:13:59.461Z,102177.00
2023-04-17T02:16:29.325Z,102170.16
2023-04-17T02:19:03.579Z,102171.47
2023-04-17T02:21:35.844Z,102160.06
2023-04-17T02:24:06.704Z,102167.69
2023-04-17T02:26:50.712Z,102169.66
2023-04-17T02:29:36.590Z,102157.88
2023-04-17T02:32:19.559Z,102162.66
2023-04-17T02:34:49.070Z,102157.75
2023-04-17T02:37:17.857Z,102156.28
2023-04-17T02:39:46.386Z,102159.94
2023-04-17T02:42:15.963Z,102157.50
2023-04-17T02:44:46.830Z,102159.44
2023-04-17T02:47:15.124Z,102159.59
2023-04-17T02:49:43.777Z,102158.88
2023-04-17T02:52:12.043Z,102157.25
2023-04-17T02:58:21.930Z,102162.78
2023-04-17T03:00:51.988Z,102156.25
2023-04-17T03:03:20.454Z,102162.41
2023-04-17T03:05:49.188Z,102157.75
2023-04-17T03:08:18.073Z,102162.16
2023-04-17T03:10:49.049Z,102162.91
2023-04-17T03:13:17.563Z,102163.63
2023-04-17T03:15:45.820Z,102157.25
2023-04-17T03:18:16.120Z,102161.69
2023-04-17T03:20:47.735Z,102161.69
2023-04-17T03:23:16.682Z,102163.41
2023-04-17T03:25:46.260Z,102165.09
2023-04-17T03:28:14.406Z,102161.56
2023-04-17T03:30:42.648Z,102158.00
2023-04-17T03:33:11.289Z,102150.66
2023-04-17T03:35:44.690Z,102162.41
2023-04-17T03:38:18.750Z,102164.88
2023-04-17T03:40:47.898Z,102161.41
2023-04-17T03:43:16.085Z,102164.88
2023-04-17T03:45:47.044Z,102170.00
2023-04-17T03:48:15.287Z,102160.91
2023-04-17T03:50:45.116Z,102167.31
2023-04-17T03:53:14.011Z,102159.13
2023-04-17T03:55:46.102Z,102162.66
2023-04-17T03:58:14.802Z,102157.50
2023-04-17T04:00:44.149Z,102162.66
2023-04-17T04:03:18.739Z,102159.97
2023-04-17T04:05:49.208Z,102168.78
2023-04-17T04:08:17.555Z,102169.16
2023-04-17T04:13:30.099Z,102168.53
2023-04-17T04:16:11.461Z,102166.09
2023-04-17T04:18:40.872Z,102173.41
2023-04-17T04:21:25.965Z,102169.28
2023-04-17T04:27:09.532Z,102175.88
2023-04-17T04:29:38.525Z,102175.75
2023-04-17T04:32:09.915Z,102171.47
2023-04-17T04:34:41.058Z,102179.56
2023-04-17T04:37:10.178Z,102177.22
2023-04-17T04:39:39.575Z,102189.09
2023-04-17T04:42:10.510Z,102188.34
2023-04-17T04:44:42.352Z,102184.19
2023-04-17T04:47:12.161Z,102180.63
2023-04-17T04:49:41.102Z,102182.56
2023-04-17T04:52:22.726Z,102178.28
2023-04-17T04:54:52.216Z,102185.75
2023-04-17T04:57:24.473Z,102179.72
2023-04-17T04:59:53.266Z,102174.69
2023-04-17T05:02:24.797Z,102180.44
2023-04-17T05:04:53.641Z,102179.94
2023-04-17T05:07:23.328Z,102189.25
2023-04-17T05:09:55.072Z,102192.03
2023-04-17T05:12:25.719Z,102193.38
2023-04-17T05:14:53.877Z,102198.97
2023-04-17T05:17:22.172Z,102187.47
2023-04-17T05:19:51.048Z,102197.59
2023-04-17T05:22:21.976Z,102192.31
2023-04-17T05:24:51.020Z,102184.47
2023-04-17T05:27:19.067Z,102196.97
2023-04-17T05:29:48.598Z,102199.41
2023-04-17T05:32:16.836Z,102196.72
2023-04-17T05:34:44.864Z,102202.97
2023-04-17T05:37:12.858Z,102206.41
2023-04-17T05:39:41.446Z,102209.97
2023-04-17T05:42:09.694Z,102209.97
2023-04-17T05:44:37.854Z,102202.88
2023-04-17T05:47:07.654Z,102206.19
2023-04-17T05:49:36.312Z,102203.91
2023-04-17T05:52:04.821Z,102201.09
2023-04-17T05:54:33.035Z,102205.41
2023-04-17T05:57:01.087Z,102210.03
2023-04-17T05:59:29.244Z,102200.38
2023-04-17T06:01:59.663Z,102203.16
2023-04-17T06:04:30.191Z,102212.72
2023-04-17T06:06:58.892Z,102211.66
2023-04-17T06:09:27.554Z,102211.31
2023-04-17T06:11:55.743Z,102214.94
2023-04-17T06:14:23.865Z,102218.13
2023-04-17T06:16:52.098Z,102215.44
2023-04-17T06:19:20.948Z,102223.06
2023-04-17T06:21:50.460Z,102217.56
2023-04-17T06:24:19.066Z,102218.78
2023-04-17T06:26:47.189Z,102232.75
2023-04-17T06:29:15.720Z,102231.19
2023-04-17T06:31:43.792Z,102230.75
2023-04-17T06:34:12.093Z,102233.69
2023-04-17T06:36:40.391Z,102243.38
2023-04-17T06:39:10.342Z,102242.88
2023-04-17T06:41:38.672Z,102238.34
2023-04-17T06:44:08.841Z,102241.78
2023-04-17T06:46:37.064Z,102249.03
2023-04-17T06:49:05.092Z,102250.53
2023-04-17T06:51:33.151Z,102251.09
2023-04-17T06:54:01.679Z,102247.94
2023-04-17T06:56:31.499Z,102249.88
2023-04-17T06:59:04.521Z,102253.88
2023-04-17T07:01:32.618Z,102259.00
2023-04-17T07:04:00.788Z,102253.84
2023-04-17T07:06:29.901Z,102254.13
2023-04-17T07:08:57.966Z,102263.28
2023-04-17T07:11:26.251Z,102266.84
2023-04-17T07:13:55.764Z,102258.47
2023-04-17T07:16:23.976Z,102265.81
2023-04-17T07:18:52.557Z,102261.66
2023-04-17T07:21:21.030Z,102267.63
2023-04-17T07:23:49.394Z,102274.41
2023-04-17T07:26:17.539Z,102275.13
2023-04-17T07:28:46.447Z,102270.59
2023-04-17T07:31:16.273Z,102280.09
2023-04-17T07:33:44.507Z,102272.88
2023-04-17T07:36:13.067Z,102277.03
2023-04-17T07:38:41.947Z,102280.72
2023-04-17T07:41:10.347Z,102281.44
2023-04-17T07:43:38.981Z,102295.75
2023-04-17T07:46:07.480Z,102290.69
2023-04-17T07:48:39.795Z,102293.38
2023-04-17T07:51:08.216Z,102292.59
2023-04-17T07:53:38.717Z,102294.00
2023-04-17T07:56:07.391Z,102297.06
2023-04-17T07:58:36.519Z,102289.81
2023-04-17T08:01:06.054Z,102292.00
2023-04-17T08:03:34.410Z,102296.59
2023-04-17T08:06:04.172Z,102300.81
2023-04-17T08:08:32.640Z,102294.06
2023-04-17T08:11:00.659Z,102295.97
2023-04-17T08:13:30.837Z,102289.84
2023-04-17T08:15:59.703Z,102288.94
2023-04-17T08:18:27.901Z,102296.09
2023-04-17T08:20:55.947Z,102288.88
2023-04-17T08:23:26.032Z,102292.31
2023-04-17T08:25:54.092Z,102291.22
2023-04-17T08:28:22.069Z,102295.09
2023-04-17T08:30:50.220Z,102293.69
2023-04-17T08:33:18.664Z,102293.59
2023-04-17T08:35:47.082Z,102294.44
2023-04-17T08:38:15.937Z,102298.03
2023-04-17T08:40:52.189Z,102282.63
2023-04-17T08:43:21.275Z,102286.94
2023-04-17T08:45:54.234Z,102286.06
2023-04-17T08:48:23.100Z,102288.91
2023-04-17T08:50:52.944Z,102294.50
2023-04-17T08:53:21.832Z,102292.50
2023-04-17T08:55:51.304Z,102291.63
2023-04-17T08:58:21.961Z,102294.31
2023-04-17T09:00:50.445Z,102291.44
2023-04-17T09:03:18.490Z,102297.69
2023-04-17T09:05:46.938Z,102298.94
2023-04-17T09:08:20.901Z,102299.78
2023-04-17T09:10:53.747Z,102297.72
2023-04-17T09:13:25.068Z,102305.44
2023-04-17T09:16:06.359Z,102307.25
2023-04-17T09:18:35.654Z,102305.91
2023-04-17T09:21:05.265Z,102309.16
2023-04-17T09:23:47.124Z,102310.56
2023-04-17T09:26:18.473Z,102298.56
2023-04-17T09:29:04.251Z,102301.97
2023-04-17T09:31:34.604Z,102303.06
2023-04-17T09:34:04.873Z,102301.44
2023-04-17T09:36:36.899Z,102303.41
2023-04-17T09:39:06.349Z,102305.72
2023-04-17T09:41:39.474Z,102297.84
2023-04-17T09:44:07.568Z,102305.09
2023-04-17T09:46:38.288Z,102305.59
2023-04-17T09:49:12.314Z,102302.66
2023-04-17T09:51:41.028Z,102303.97
2023-04-17T09:54:11.746Z,102303.56
2023-04-17T09:56:42.148Z,102310.25
2023-04-17T09:59:11.161Z,102305.47
2023-04-17T10:01:40.885Z,102310.25
2023-04-17T10:04:09.527Z,102312.41
2023-04-17T10:06:37.914Z,102307.47
2023-04-17T10:09:06.043Z,102308.75
2023-04-17T10:11:38.696Z,102309.25
2023-04-17T10:14:13.197Z,102300.72
2023-04-17T10:16:44.010Z,102301.31
2023-04-17T10:19:31.997Z,102300.75
2023-04-17T10:22:31.742Z,102303.06
2023-04-17T10:25:18.869Z,102311.78
2023-04-17T10:27:48.807Z,102308.06
2023-04-17T10:32:48.140Z,102309.59
2023-04-17T10:35:35.923Z,102314.72
2023-04-17T10:38:06.361Z,102315.28
2023-04-17T10:40:35.999Z,102306.81
2023-04-17T10:43:12.552Z,102304.38
2023-04-17T10:45:57.247Z,102310.91
2023-04-17T10:48:29.989Z,102314.16
2023-04-17T10:50:58.501Z,102311.13
2023-04-17T10:53:40.959Z,102306.00
2023-04-17T10:56:10.339Z,102310.72
2023-04-17T10:58:57.077Z,102316.56
2023-04-17T11:01:29.020Z,102312.28
2023-04-17T11:03:59.658Z,102304.25
2023-04-17T11:06:29.350Z,102307.03
2023-04-17T11:08:58.091Z,102306.13
2023-04-17T11:11:40.617Z,102311.41
2023-04-17T11:14:14.638Z,102306.53
2023-04-17T11:16:46.354Z,102301.09
2023-04-17T11:19:19.888Z,102305.84
2023-04-17T11:21:50.532Z,102305.34
2023-04-17T11:24:24.566Z,102301.66
2023-04-17T11:26:52.791Z,102307.09
2023-04-17T11:29:22.491Z,102298.28
2023-04-17T11:31:53.281Z,102302.28
2023-04-17T11:34:22.631Z,102306.41
2023-04-17T11:36:51.260Z,102300.63
2023-04-17T11:39:19.943Z,102300.34
2023-04-17T11:41:48.010Z,102297.31
2023-04-17T11:44:16.712Z,102304.75
2023-04-17T11:46:44.966Z,102295.13
2023-04-17T11:49:14.570Z,102296.00
2023-04-17T11:51:46.304Z,102298.41
2023-04-17T11:54:22.082Z,102305.88
2023-04-17T11:56:59.907Z,102298.03
2023-04-17T11:59:32.196Z,102298.94
2023-04-17T12:02:02.034Z,102295.31
2023-04-17T12:04:35.165Z,102296.63
2023-04-17T12:07:04.029Z,102294.06
2023-04-17T12:09:32.694Z,102299.50
2023-04-17T12:12:03.975Z,102297.06
2023-04-17T12:14:32.139Z,102293.13
2023-04-17T12:17:01.490Z,102287.63
2023-04-17T12:19:31.842Z,102294.97
2023-04-17T12:22:01.650Z,102294.34
2023-04-17T12:24:30.247Z,102294.38
2023-04-17T12:26:58.900Z,102295.38
2023-04-17T12:29:36.766Z,102301.28
2023-04-17T12:32:12.919Z,102295.88
2023-04-17T12:34:41.437Z,102288.88
2023-04-17T12:37:11.626Z,102282.44
2023-04-17T12:39:39.588Z,102282.09
2023-04-17T12:42:07.608Z,102280.84
2023-04-17T12:44:36.213Z,102285.03
2023-04-17T12:47:04.323Z,102280.56
2023-04-17T12:49:32.494Z,102283.59
2023-04-17T12:52:02.581Z,102273.78
2023-04-17T12:54:33.360Z,102271.19
2023-04-17T12:57:01.598Z,102277.28
2023-04-17T12:59:30.279Z,102283.38
2023-04-17T13:01:58.708Z,102276.06
2023-04-17T13:04:27.122Z,102280.25
2023-04-17T13:06:58.211Z,102276.13
2023-04-17T13:09:26.928Z,102280.00
2023-04-17T13:11:57.761Z,102271.78
2023-04-17T13:14:26.033Z,102275.88
2023-04-17T13:16:54.215Z,102275.38
2023-04-17T13:19:22.489Z,102275.88
2023-04-17T13:21:52.431Z,102276.72
2023-04-17T13:24:20.539Z,102270.72
2023-04-17T13:26:48.574Z,102271.50
2023-04-17T13:29:19.530Z,102275.22
2023-04-17T13:31:47.952Z,102280.13
2023-04-17T13:34:16.330Z,102269.72
2023-04-17T13:36:45.141Z,102274.50
2023-04-17T13:39:13.840Z,102274.50
2023-04-17T13:41:42.355Z,102273.09
2023-04-17T13:44:10.591Z,102276.84
2023-04-17T13:46:40.958Z,102263.75
2023-04-17T13:49:14.797Z,102267.47
2023-04-17T13:51:45.607Z,102265.97
2023-04-17T13:54:14.199Z,102267.34
2023-04-17T13:56:42.859Z,102274.50
2023-04-17T13:59:11.604Z,102268.06
2023-04-17T14:01:41.440Z,102264.38
2023-04-17T14:04:09.949Z,102263.22
2023-04-17T14:06:38.351Z,102263.72
2023-04-17T14:09:07.533Z,102267.88
2023-04-17T14:11:35.507Z,102267.22
2023-04-17T14:14:03.506Z,102258.91
2023-04-17T14:16:31.654Z,102254.78
2023-04-17T14:19:06.686Z,102265.19
2023-04-17T14:21:41.302Z,102255.13
2023-04-17T14:24:09.364Z,102255.66
2023-04-17T14:26:38.252Z,102255.31
2023-04-17T14:29:06.281Z,102259.75
2023-04-17T14:31:34.410Z,102257.16
2023-04-17T14:34:04.390Z,102254.44
2023-04-17T14:36:32.398Z,102254.53
2023-04-17T14:39:00.767Z,102249.47
2023-04-17T14:41:30.832Z,102251.53
2023-04-17T14:43:58.844Z,102255.53
2023-04-17T14:46:27.857Z,102257.22
2023-04-17T14:48:56.834Z,102254.81
2023-04-17T14:51:27.260Z,102255.63
2023-04-17T14:53:59.159Z,102261.25
2023-04-17T14:56:27.417Z,102253.56
2023-04-17T14:58:55.951Z,102254.91
2023-04-17T15:01:23.977Z,102256.09
2023-04-17T15:03:52.466Z,102255.38
2023-04-17T15:06:20.593Z,102251.97
2023-04-17T15:08:49.968Z,102253.38
2023-04-17T15:11:18.032Z,102255.06
2023-04-17T15:13:46.044Z,102259.78
2023-04-17T15:16:14.062Z,102261.91
2023-04-17T15:18:42.050Z,102261.91
2023-04-17T15:21:10.100Z,102264.94
2023-04-17T15:23:38.786Z,102261.03
2023-04-17T15:26:09.202Z,102263.59
2023-04-17T15:28:37.593Z,102259.84
2023-04-17T15:31:05.587Z,102257.81
2023-04-17T15:33:34.267Z,102259.53
2023-04-17T15:36:03.027Z,102253.97
2023-04-17T15:38:30.956Z,102257.53
2023-04-17T15:40:58.988Z,102257.22
2023-04-17T15:43:28.523Z,102264.59
2023-04-17T15:45:56.611Z,102263.50
2023-04-17T15:48:24.602Z,102260.09
2023-04-17T15:50:53.235Z,102253.31
2023-04-17T15:53:21.441Z,102258.06
2023-04-17T15:55:49.602Z,102247.50
2023-04-17T15:58:17.630Z,102255.38
2023-04-17T16:00:47.028Z,102255.72
2023-04-17T16:03:15.213Z,102247.84
2023-04-17T16:05:43.351Z,102252.13
2023-04-17T16:08:11.295Z,102252.78
2023-04-17T16:10:39.276Z,102260.63
2023-04-17T16:13:07.234Z,102253.63
2023-04-17T16:15:35.279Z,102267.59
2023-04-17T16:18:05.398Z,102261.78
2023-04-17T16:20:33.484Z,102263.97
2023-04-17T16:23:01.394Z,102270.03
2023-04-17T16:25:29.346Z,102259.63
2023-04-17T16:27:57.326Z,102268.91
2023-04-17T16:30:25.358Z,102259.00
2023-04-17T16:32:53.394Z,102266.97
2023-04-17T16:35:23.055Z,102262.16
2023-04-17T16:37:51.069Z,102260.09
2023-04-17T16:40:19.926Z,102255.31
2023-04-17T16:42:47.992Z,102255.81
2023-04-17T16:45:15.996Z,102257.84
2023-04-17T16:47:44.225Z,102255.50
2023-04-17T16:50:12.762Z,102261.66
2023-04-17T16:52:42.190Z,102260.94
2023-04-17T16:55:11.010Z,102258.06
2023-04-17T16:57:40.760Z,102260.63
2023-04-17T17:00:11.339Z,102261.13
2023-04-17T17:02:39.531Z,102261.13
2023-04-17T17:05:09.227Z,102265.00
2023-04-17T17:07:37.235Z,102268.25
2023-04-17T17:10:08.191Z,102272.38
2023-04-17T17:12:36.174Z,102268.94
2023-04-17T17:15:05.174Z,102273.69
2023-04-17T17:17:33.355Z,102278.97
2023-04-17T17:20:01.767Z,102269.66
2023-04-17T17:22:29.769Z,102270.66
2023-04-17T17:24:57.795Z,102277.94
2023-04-17T17:27:27.541Z,102262.94
2023-04-17T17:29:56.578Z,102267.88
2023-04-17T17:32:25.778Z,102272.69
2023-04-17T17:34:53.977Z,102269.16
2023-04-17T17:37:21.962Z,102267.00
2023-04-17T17:39:50.062Z,102274.88
2023-04-17T17:42:18.212Z,102266.44
2023-04-17T17:44:47.671Z,102257.94
2023-04-17T17:47:15.700Z,102260.50
2023-04-17T17:49:43.707Z,102257.75
2023-04-17T17:52:11.856Z,102257.22
2023-04-17T17:54:40.070Z,102263.84
2023-04-17T17:57:09.151Z,102266.69
2023-04-17T17:59:37.165Z,102258.16
2023-04-17T18:05:18.697Z,102255.31
2023-04-17T18:07:47.057Z,102266.34
2023-04-17T18:10:15.250Z,102261.91
2023-04-17T18:12:43.429Z,102260.34
2023-04-17T18:15:12.236Z,102264.31
2023-04-17T18:17:46.686Z,102265.84
2023-04-17T18:20:15.139Z,102269.47
2023-04-17T18:22:43.164Z,102267.66
2023-04-17T18:25:12.083Z,102272.13
2023-04-17T18:27:40.030Z,102275.75
2023-04-17T18:30:10.178Z,102271.00
2023-04-17T18:32:38.200Z,102280.16
2023-04-17T18:35:08.779Z,102272.03
2023-04-17T18:37:36.790Z,102268.34
2023-04-17T18:40:07.475Z,102259.44
2023-04-17T18:42:35.444Z,102257.53
2023-04-17T18:45:03.666Z,102258.50
2023-04-17T18:47:31.824Z,102251.78
2023-04-17T18:49:59.849Z,102253.81
2023-04-17T18:52:29.366Z,102256.03
2023-04-17T18:54:57.364Z,102258.59
2023-04-17T18:57:26.145Z,102258.69
2023-04-17T18:59:54.857Z,102262.47
2023-04-17T19:02:22.934Z,102269.22
2023-04-17T19:04:51.126Z,102271.53
2023-04-17T19:07:19.169Z,102279.88
2023-04-17T19:09:48.619Z,102288.09
2023-04-17T19:12:16.805Z,102282.16
2023-04-17T19:14:44.746Z,102280.19
2023-04-17T19:17:12.927Z,102277.56
2023-04-17T19:19:41.064Z,102284.56
2023-04-17T19:22:09.091Z,102286.84
2023-04-17T19:24:37.316Z,102290.19
2023-04-17T19:27:06.835Z,102288.22
2023-04-17T19:29:34.938Z,102289.34
2023-04-17T19:32:03.442Z,102289.75
2023-04-17T19:34:31.412Z,102304.69
2023-04-17T19:36:59.473Z,102305.47
2023-04-17T19:39:28.482Z,102304.41
2023-04-17T19:41:56.452Z,102302.38
2023-04-17T19:44:27.820Z,102305.44
2023-04-17T19:46:56.887Z,102309.47
2023-04-17T19:49:24.960Z,102304.00
2023-04-17T19:51:52.917Z,102308.47
2023-04-17T19:54:21.076Z,102307.81
2023-04-17T19:56:49.251Z,102298.63
2023-04-17T19:59:17.218Z,102303.88
2023-04-17T20:01:46.880Z,102306.09
2023-04-17T20:04:16.712Z,102304.88
2023-04-17T20:06:44.963Z,102307.97
2023-04-17T20:09:14.703Z,102300.41
2023-04-17T20:11:43.001Z,102308.16
2023-04-17T20:14:11.379Z,102303.41
2023-04-17T20:16:39.523Z,102310.41
2023-04-17T20:19:09.650Z,102309.09
2023-04-17T20:21:37.746Z,102313.88
2023-04-17T20:24:06.410Z,102316.81
2023-04-17T20:26:37.266Z,102319.88
2023-04-17T20:29:05.776Z,102316.81
2023-04-17T20:31:36.446Z,102327.75
2023-04-17T20:34:07.008Z,102328.88
2023-04-17T20:36:36.708Z,102330.81
2023-04-17T20:39:04.803Z,102329.09
2023-04-17T20:41:33.834Z,102329.81
2023-04-17T20:44:02.253Z,102326.28
2023-04-17T20:46:30.709Z,102330.81
2023-04-17T20:48:59.168Z,102328.59
2023-04-17T20:51:27.632Z,102323.19
2023-04-17T20:53:57.136Z,102323.56
2023-04-17T20:56:25.413Z,102321.97
2023-04-17T20:58:53.877Z,102321.59
2023-04-17T21:01:21.927Z,102319.03
2023-04-17T21:03:50.096Z,102323.56
2023-04-17T21:06:21.155Z,102321.84
2023-04-17T21:08:49.216Z,102320.97
2023-04-17T21:11:18.574Z,102320.13
2023-04-17T21:13:46.486Z,102328.09
2023-04-17T21:16:15.053Z,102325.38
2023-04-17T21:18:43.375Z,102322.69
2023-04-17T21:21:11.361Z,102319.03
2023-04-17T21:23:39.455Z,102315.34
2023-04-17T21:26:07.716Z,102310.78
2023-04-17T21:28:43.148Z,102307.38
2023-04-17T21:31:15.626Z,102314.22
2023-04-17T21:33:44.258Z,102299.16
2023-04-17T21:36:15.971Z,102309.09
2023-04-17T21:38:45.199Z,102304.19
2023-04-17T21:41:13.433Z,102306.16
2023-04-17T21:43:42.885Z,102300.88
2023-04-17T21:46:11.587Z,102296.47
2023-04-17T21:48:40.736Z,102297.56
2023-04-17T21:51:08.946Z,102302.13
2023-04-17T21:53:37.951Z,102297.72
2023-04-17T21:56:07.233Z,102307.75
2023-04-17T21:58:35.525Z,102295.25
2023-04-17T22:01:05.091Z,102308.13
2023-04-17T22:03:33.198Z,102302.16
2023-04-17T22:06:01.912Z,102303.38
2023-04-17T22:08:29.977Z,102305.22
2023-04-17T22:10:58.029Z,102296.50
2023-04-17T22:13:26.621Z,102296.72
2023-04-17T22:15:56.391Z,102300.69
2023-04-17T22:18:28.077Z,102304.63
2023-04-17T22:20:56.279Z,102309.63
2023-04-17T22:23:24.630Z,102306.56
2023-04-17T22:25:52.968Z,102314.16
2023-04-17T22:28:23.042Z,102317.38
2023-04-17T22:30:52.655Z,102304.59
2023-04-17T22:33:35.981Z,102312.28
2023-04-17T22:36:04.910Z,102320.13
2023-04-17T22:38:36.626Z,102317.16
2023-04-17T22:41:08.223Z,102323.03
2023-04-17T22:43:37.415Z,102323.59
2023-04-17T22:46:06.879Z,102325.94
2023-04-17T22:48:37.222Z,102324.56
2023-04-17T22:51:06.302Z,102327.75
2023-04-17T22:53:37.643Z,102322.69
2023-04-17T22:56:07.035Z,102326.94
2023-04-17T22:58:38.956Z,102333.41
2023-04-17T23:01:07.133Z,102331.31
2023-04-17T23:03:38.408Z,102329.06
2023-04-17T23:06:07.556Z,102326.59
2023-04-17T23:08:35.967Z,102336.00
2023-04-17T23:11:04.962Z,102330.84
2023-04-17T23:13:33.146Z,102337.31
2023-04-17T23:16:01.149Z,102329.25
2023-04-17T23:18:29.100Z,102337.53
2023-04-17T23:20:58.591Z,102325.06
2023-04-17T23:23:26.850Z,102322.38
2023-04-17T23:25:54.907Z,102340.25
2023-04-17T23:28:23.097Z,102332.28
2023-04-17T23:30:51.211Z,102318.06
2023-04-17T23:33:19.318Z,102321.09
2023-04-17T23:35:47.380Z,102326.69
2023-04-17T23:38:16.784Z,102320.78
2023-04-17T23:40:44.864Z,102330.56
2023-04-17T23:43:13.139Z,102335.09
2023-04-17T23:45:41.180Z,102331.44
2023-04-17T23:48:09.854Z,102339.72
2023-04-17T23:50:37.837Z,102338.84
2023-04-17T23:53:06.057Z,102337.03
2023-04-17T23:55:35.792Z,102326.38
2023-04-17T23:58:03.968Z,102328.09
